Des Moines, NM (88418)

6:08 PM MST on February 25, 2017 (GMT -0700)
Baca Valley | | Change Station

Elev 6645 ft 36.76 °N, 103.83 °W | Updated 4 minutes ago

Clear
Clear
31.0 °F
Feels Like 22 °F
N
12.0
Wind Variable Wind from WSW
Gusts 29.0 mph

Today
High -- | Low -- °F
--% Chance of Precip.
Yesterday
High -- | Low -- °F
Precip. -- in
Pressure 29.87 in
Visibility 10.0 miles
Clouds Clear
Windchill 22 °F
Dew Point 5 °F
Humidity 33%
Rainfall Not available.
Snow Depth Not available.
6:30 AM 5:46 PM
Waning Crescent, 0% visible
METAR KRTN 260053Z AUTO 27015G24KT 10SM CLR 04/M17 A2979 RMK AO2 PK WND 26027/0002 SLP114 T00391172
Pressure 29.87 in
Visibility 10.0 miles
Clouds Clear
Windchill 22 °F
Dew Point 5 °F
Humidity 33%
Rainfall Not available.
Snow Depth Not available.
6:30 AM 5:46 PM
Waning Crescent, 0% visible
METAR KRTN 260053Z AUTO 27015G24KT 10SM CLR 04/M17 A2979 RMK AO2 PK WND 26027/0002 SLP114 T00391172

Get Your Daily Forecast Email!

Thanks for signing up!

Be on the lookout for a verification email in your inbox.

You'll start receiving the daily forecast at 8 AM.

×

10-Day Weather Forecast

Almanac

Astronomy

Feb. 25, 2017 Rise Set
Actual Time
Civil Twilight
Nautical Twilight
Astronomical Twilight
Moon
Length of Visible Light
Length of Day
Tomorrow will be .
, % of the Moon is Illuminated

Today's Extremes

State Highs State Lows

Community

WunderPhotos

Upload Photos

1,962,540 photos uploaded!

WunderBlog® & News

Nearby

Air Quality

  Air Quality AQ Index Pollutant
Not available.

Snow Depth

Station Depth Elevation

Earthquake Activity

City Distance Mag. Time & Date
Minimum magnitude displayed is 2.5.

Coastal Water Temperatures

Place Temperature

Stations

Nearby Weather Stations

Station Location Temp. Windchill Dew Point Humidity Wind Precip. Elev Updated Type
                   

Watches & Warnings

There are currently no watches in effect.